Time;durP1;ratioP1;P1;durP2;ratioP2;P2;SDS_P1;SDS_P2;PMS_P1;PMS_P2;Temp;Humidity;BMP_temperature;BMP_pressure;BME280_temperature;BME280_humidity;BME280_pressure;Samples;Min_cycle;Max_cycle;Signal;HPM_P1;HPM_P2
2022/11/22 00:01:04;;;;;;;4.20;0.50;;;6.00;99.90;;;;;;4889997;29;20040;-84
2022/11/22 00:03:30;;;;;;;1.35;0.40;;;6.10;99.90;;;;;;4887274;29;20453;-84
2022/11/22 00:05:56;;;;;;;1.85;0.50;;;6.10;99.90;;;;;;4890634;29;20041;-86
2022/11/22 00:08:21;;;;;;;3.95;0.40;;;6.10;99.90;;;;;;4891323;29;20036;-83
2022/11/22 00:10:48;;;;;;;4.40;0.50;;;6.10;99.90;;;;;;4887747;29;20092;-84
2022/11/22 00:13:18;;;;;;;2.10;0.50;;;6.00;99.90;;;;;;4888128;29;20043;-83
2022/11/22 00:15:44;;;;;;;1.95;0.50;;;6.00;99.90;;;;;;4892003;29;20036;-84
2022/11/22 00:18:10;;;;;;;4.22;0.60;;;6.10;99.90;;;;;;4892591;29;20036;-85
2022/11/22 00:20:36;;;;;;;5.45;0.70;;;6.10;99.90;;;;;;4892239;29;20029;-85
2022/11/22 00:23:02;;;;;;;2.30;0.50;;;6.10;99.90;;;;;;4874677;29;20492;-84
2022/11/22 00:25:28;;;;;;;3.40;0.60;;;6.10;99.90;;;;;;4875723;29;20744;-85
2022/11/22 00:27:53;;;;;;;2.80;0.50;;;6.10;99.90;;;;;;4890096;29;20052;-84
2022/11/22 00:30:19;;;;;;;9.13;0.70;;;6.10;99.90;;;;;;4888094;29;20044;-83
2022/11/22 00:32:45;;;;;;;3.85;0.50;;;6.10;99.90;;;;;;4874797;29;20120;-86
2022/11/22 00:35:11;;;;;;;2.75;0.55;;;6.10;99.90;;;;;;4893038;29;20107;-84
2022/11/22 00:37:37;;;;;;;3.40;0.60;;;6.10;99.90;;;;;;4889334;29;20053;-83
2022/11/22 00:40:04;;;;;;;3.65;0.70;;;6.10;99.90;;;;;;4891723;29;20031;-83
2022/11/22 00:42:30;;;;;;;2.97;0.60;;;6.10;99.90;;;;;;4870713;29;20378;-84
2022/11/22 00:44:55;;;;;;;1.77;0.40;;;6.10;99.90;;;;;;4905858;29;20039;-84
2022/11/22 00:47:21;;;;;;;4.95;0.60;;;6.10;99.90;;;;;;4894087;29;20032;-80
2022/11/22 00:49:46;;;;;;;2.45;0.50;;;6.10;99.90;;;;;;4907087;29;20068;-84
2022/11/22 00:52:12;;;;;;;4.15;0.80;;;6.10;99.90;;;;;;4893355;29;20119;-85
2022/11/22 00:54:38;;;;;;;2.25;0.70;;;6.20;99.90;;;;;;4909273;29;20033;-83
2022/11/22 00:57:04;;;;;;;1.90;0.45;;;6.20;99.90;;;;;;4906799;29;20036;-83
2022/11/22 00:59:29;;;;;;;3.55;0.85;;;6.10;99.90;;;;;;4895729;29;20035;-84
2022/11/22 01:01:55;;;;;;;4.22;1.33;;;6.20;99.90;;;;;;4893253;29;20111;-83
2022/11/22 01:04:21;;;;;;;2.70;0.60;;;6.10;99.90;;;;;;4893755;29;20100;-84
2022/11/22 01:06:46;;;;;;;5.55;0.77;;;6.20;99.90;;;;;;4892266;29;20123;-83
2022/11/22 01:09:17;;;;;;;4.38;0.60;;;6.10;99.90;;;;;;4894225;29;20028;-84
2022/11/22 01:11:43;;;;;;;3.28;0.82;;;6.20;99.90;;;;;;4895494;29;20289;-84
2022/11/22 01:14:09;;;;;;;3.53;0.60;;;6.10;99.90;;;;;;4890257;29;20043;-85
2022/11/22 01:16:34;;;;;;;3.03;0.98;;;6.10;99.90;;;;;;4889637;29;20044;-82
2022/11/22 01:19:00;;;;;;;3.13;0.60;;;6.10;99.90;;;;;;4876666;29;20029;-84
2022/11/22 01:21:26;;;;;;;3.67;0.70;;;6.10;99.90;;;;;;4906163;29;20477;-85
2022/11/22 01:23:51;;;;;;;3.28;0.70;;;6.20;99.90;;;;;;4909863;29;20061;-84
2022/11/22 01:26:17;;;;;;;3.15;0.68;;;6.20;99.90;;;;;;4879976;29;20044;-84
2022/11/22 01:28:43;;;;;;;3.25;0.88;;;6.20;99.90;;;;;;4903331;29;20096;-83
2022/11/22 01:31:09;;;;;;;3.08;0.70;;;6.20;99.90;;;;;;4878635;29;20119;-84
2022/11/22 01:33:35;;;;;;;3.80;0.60;;;6.20;99.90;;;;;;4890651;29;20079;-84
2022/11/22 01:36:00;;;;;;;1.65;0.50;;;6.20;99.90;;;;;;4876578;29;22196;-84
2022/11/22 01:38:26;;;;;;;3.38;0.60;;;6.30;99.90;;;;;;4892991;29;20036;-82
2022/11/22 01:40:52;;;;;;;2.75;0.63;;;6.30;99.90;;;;;;4892766;29;20424;-85
2022/11/22 01:43:23;;;;;;;5.80;0.85;;;6.30;99.90;;;;;;4873765;29;20041;-84
2022/11/22 01:45:53;;;;;;;1.63;0.43;;;6.20;99.90;;;;;;4895209;29;20036;-86
2022/11/22 01:48:27;;;;;;;2.33;0.50;;;6.20;99.90;;;;;;4893261;29;20028;-84
2022/11/22 01:51:15;;;;;;;3.75;0.40;;;6.20;99.90;;;;;;4877875;29;20413;-84
2022/11/22 01:53:41;;;;;;;2.58;0.60;;;6.20;99.90;;;;;;4886075;29;20029;-81
2022/11/22 01:56:11;;;;;;;2.55;0.55;;;6.10;99.90;;;;;;4894852;29;20028;-84
2022/11/22 01:58:40;;;;;;;1.85;0.60;;;6.10;99.90;;;;;;4888722;29;20060;-86
2022/11/22 02:01:06;;;;;;;2.30;0.50;;;6.00;99.90;;;;;;4909498;29;20032;-82
2022/11/22 02:03:35;;;;;;;5.75;0.93;;;6.00;99.90;;;;;;4891839;29;20033;-85
2022/11/22 02:06:02;;;;;;;1.63;0.50;;;5.90;99.90;;;;;;4906941;29;20052;-85
2022/11/22 02:08:39;;;;;;;2.45;0.50;;;5.90;99.90;;;;;;4878139;29;20037;-85
2022/11/22 02:11:07;;;;;;;1.80;0.40;;;5.80;99.90;;;;;;4891881;29;20125;-85
2022/11/22 02:13:37;;;;;;;3.53;0.80;;;5.80;99.90;;;;;;4893405;29;20024;-85
2022/11/22 02:16:04;;;;;;;2.95;0.73;;;5.70;99.90;;;;;;4891545;29;20044;-85
2022/11/22 02:18:32;;;;;;;2.95;0.50;;;5.80;99.90;;;;;;4892201;29;20065;-85
2022/11/22 02:20:58;;;;;;;3.63;0.70;;;5.80;99.90;;;;;;4891908;29;20105;-85
2022/11/22 02:23:59;;;;;;;2.15;0.70;;;5.70;99.90;;;;;;4888992;29;20481;-83
2022/11/22 02:26:27;;;;;;;2.33;0.70;;;5.70;99.90;;;;;;4887423;29;20043;-84
2022/11/22 02:28:56;;;;;;;2.22;0.57;;;5.70;99.90;;;;;;4875222;29;20512;-85
2022/11/22 02:31:34;;;;;;;2.63;0.60;;;5.70;99.90;;;;;;4873945;29;20037;-85
2022/11/22 02:33:59;;;;;;;1.55;0.90;;;5.70;99.90;;;;;;4890312;29;20537;-84
2022/11/22 02:36:25;;;;;;;3.00;0.70;;;5.70;99.90;;;;;;4877905;29;20041;-84
2022/11/22 02:38:52;;;;;;;3.28;0.77;;;5.70;99.90;;;;;;4876088;29;20039;-84
2022/11/22 02:41:17;;;;;;;3.08;0.80;;;5.70;99.90;;;;;;4890954;29;20033;-84
2022/11/22 02:43:45;;;;;;;4.10;1.45;;;5.70;99.90;;;;;;4878335;29;20529;-85
2022/11/22 02:46:20;;;;;;;4.15;1.10;;;5.90;99.90;;;;;;4890273;29;20528;-85
2022/11/22 02:48:46;;;;;;;4.30;1.38;;;5.80;99.90;;;;;;4892643;29;20036;-85
2022/11/22 02:51:15;;;;;;;5.57;1.40;;;5.80;99.90;;;;;;4874990;29;20512;-86
2022/11/22 02:53:42;;;;;;;7.78;1.85;;;5.80;99.90;;;;;;4893672;29;20036;-82
2022/11/22 02:56:08;;;;;;;6.97;1.65;;;5.90;99.90;;;;;;4892863;29;20041;-85
2022/11/22 02:58:34;;;;;;;4.97;1.80;;;5.90;99.90;;;;;;4906955;29;20025;-85
2022/11/22 03:00:59;;;;;;;6.75;2.20;;;5.90;99.90;;;;;;4892961;29;20140;-85
2022/11/22 03:03:25;;;;;;;8.38;2.25;;;5.90;99.90;;;;;;4893645;29;20036;-85
2022/11/22 03:05:51;;;;;;;9.45;2.53;;;5.90;99.90;;;;;;4892871;29;20083;-85
2022/11/22 03:08:17;;;;;;;5.80;2.78;;;5.90;99.90;;;;;;4897442;29;20032;-83
2022/11/22 03:10:43;;;;;;;6.78;2.20;;;5.90;99.90;;;;;;4892505;29;20044;-84
2022/11/22 03:13:08;;;;;;;4.97;1.50;;;5.90;99.90;;;;;;4877982;29;20025;-85
2022/11/22 03:15:34;;;;;;;5.25;1.73;;;5.90;99.90;;;;;;4906008;29;20059;-85
2022/11/22 03:18:01;;;;;;;6.05;2.45;;;5.80;99.90;;;;;;4906621;29;20064;-82
2022/11/22 03:20:28;;;;;;;7.65;2.10;;;5.80;99.90;;;;;;4877439;29;20366;-81
2022/11/22 03:22:54;;;;;;;6.63;2.05;;;5.80;99.90;;;;;;4893785;29;20135;-84
2022/11/22 03:25:20;;;;;;;5.63;2.30;;;5.70;99.90;;;;;;4906774;29;20036;-85
2022/11/22 03:27:47;;;;;;;5.68;2.17;;;5.80;99.90;;;;;;4875579;29;20481;-82
2022/11/22 03:30:13;;;;;;;7.18;2.28;;;5.70;99.90;;;;;;4892562;29;20033;-84
2022/11/22 03:32:39;;;;;;;5.53;1.95;;;5.70;99.90;;;;;;4895666;29;20039;-84
2022/11/22 03:35:05;;;;;;;5.43;1.55;;;5.70;99.90;;;;;;4887276;29;20033;-85
2022/11/22 03:37:30;;;;;;;3.22;1.00;;;5.70;99.90;;;;;;4891053;29;20048;-84
2022/11/22 03:39:56;;;;;;;4.10;1.15;;;5.60;99.90;;;;;;4906484;29;20036;-86
2022/11/22 03:42:22;;;;;;;4.40;1.67;;;5.60;99.90;;;;;;4905643;29;20039;-82
2022/11/22 03:44:47;;;;;;;6.85;1.83;;;5.60;99.90;;;;;;4875797;29;20024;-85
2022/11/22 03:47:13;;;;;;;6.20;1.42;;;5.60;99.90;;;;;;4903292;29;20155;-85
2022/11/22 03:49:39;;;;;;;2.90;1.20;;;5.50;99.90;;;;;;4892194;29;20104;-86
2022/11/22 03:52:04;;;;;;;7.15;1.42;;;5.50;99.90;;;;;;4878513;29;20044;-84
2022/11/22 03:54:30;;;;;;;5.15;1.17;;;5.40;99.90;;;;;;4873386;29;20240;-85
2022/11/22 03:56:56;;;;;;;5.88;1.15;;;5.50;99.90;;;;;;4892996;29;20111;-85
2022/11/22 03:59:21;;;;;;;6.88;1.10;;;5.50;99.90;;;;;;4875591;29;20033;-81
2022/11/22 04:01:47;;;;;;;5.45;1.30;;;5.50;99.90;;;;;;4907226;29;20548;-85
2022/11/22 04:04:13;;;;;;;5.68;0.73;;;5.40;99.90;;;;;;4877842;29;20503;-85
2022/11/22 04:06:38;;;;;;;5.35;0.73;;;5.40;99.90;;;;;;4890772;29;20036;-84
2022/11/22 04:09:05;;;;;;;4.68;0.70;;;5.30;99.90;;;;;;4893503;29;20036;-86
2022/11/22 04:11:30;;;;;;;7.93;0.60;;;5.30;99.90;;;;;;4873825;29;20040;-85
2022/11/22 04:16:40;;;;;;;4.28;0.68;;;5.40;99.90;;;;;;4903252;29;20063;-87
2022/11/22 04:19:06;;;;;;;4.60;0.65;;;5.30;99.90;;;;;;4906392;29;20056;-87
2022/11/22 04:21:34;;;;;;;4.75;0.50;;;5.30;99.90;;;;;;4903518;29;20115;-85
2022/11/22 04:26:53;;;;;;;2.88;0.40;;;5.20;99.90;;;;;;4890218;29;20495;-86
2022/11/22 04:29:19;;;;;;;5.85;0.38;;;5.20;99.90;;;;;;4905644;29;20039;-88
2022/11/22 04:34:30;;;;;;;6.07;0.30;;;5.10;99.90;;;;;;4887898;29;20043;-86
2022/11/22 04:36:56;;;;;;;2.67;0.20;;;5.10;99.90;;;;;;4887864;29;20067;-86
2022/11/22 04:39:22;;;;;;;2.20;0.20;;;5.10;99.90;;;;;;4887958;29;20024;-86
2022/11/22 04:44:39;;;;;;;2.60;0.20;;;5.10;99.90;;;;;;4892159;29;20036;-85
2022/11/22 04:44:41;;;;;;;3.67;0.30;;;5.00;99.90;;;;;;4890064;29;20108;-86
2022/11/22 04:47:09;;;;;;;3.67;0.20;;;5.00;99.90;;;;;;4887642;29;20120;-86
2022/11/22 04:49:35;;;;;;;3.65;0.30;;;5.00;99.90;;;;;;4907097;29;20033;-84
2022/11/22 04:54:45;;;;;;;4.00;0.20;;;4.90;99.90;;;;;;4902706;29;20449;-83
2022/11/22 04:57:11;;;;;;;4.80;0.28;;;4.90;99.90;;;;;;4903943;29;20115;-87
2022/11/22 04:59:36;;;;;;;4.32;0.32;;;4.90;99.90;;;;;;4904913;29;20465;-87
2022/11/22 05:02:02;;;;;;;1.92;0.20;;;4.90;99.90;;;;;;4892308;29;20029;-85
2022/11/22 05:04:28;;;;;;;2.75;0.30;;;4.90;99.90;;;;;;4889025;29;20111;-86
2022/11/22 05:06:55;;;;;;;4.88;0.30;;;4.90;99.90;;;;;;4899912;29;20466;-85
2022/11/22 05:09:21;;;;;;;4.15;0.20;;;4.80;99.90;;;;;;4874460;29;20021;-84
2022/11/22 05:11:47;;;;;;;2.92;0.20;;;4.80;99.90;;;;;;4890764;29;20045;-86
2022/11/22 05:14:12;;;;;;;3.88;0.35;;;4.70;99.90;;;;;;4890280;29;20382;-83
2022/11/22 05:16:38;;;;;;;5.95;0.30;;;4.70;99.90;;;;;;4872261;29;20448;-88
2022/11/22 05:19:04;;;;;;;6.18;0.30;;;4.70;99.90;;;;;;4889488;29;20445;-85
2022/11/22 05:21:32;;;;;;;5.00;0.20;;;4.70;99.90;;;;;;4903975;29;20033;-86
2022/11/22 05:23:57;;;;;;;2.85;0.20;;;4.70;99.90;;;;;;4887438;29;20096;-86
2022/11/22 05:26:30;;;;;;;1.88;0.25;;;4.60;99.90;;;;;;4903454;29;20032;-85
2022/11/22 05:28:57;;;;;;;3.40;0.30;;;4.70;99.90;;;;;;4891365;29;20029;-86
2022/11/22 05:31:26;;;;;;;5.47;0.85;;;4.60;99.90;;;;;;4877774;29;20051;-84
2022/11/22 05:33:53;;;;;;;5.13;0.30;;;4.60;99.90;;;;;;4893442;29;20564;-81
2022/11/22 05:36:20;;;;;;;3.15;0.30;;;4.60;99.90;;;;;;4891354;29;20560;-85
2022/11/22 05:38:46;;;;;;;4.65;0.20;;;4.50;99.90;;;;;;4888730;29;20040;-87
2022/11/22 05:41:13;;;;;;;5.63;0.40;;;4.50;99.90;;;;;;4894424;29;20384;-87
2022/11/22 05:43:40;;;;;;;3.83;0.30;;;4.40;99.90;;;;;;4878026;29;20048;-86
2022/11/22 05:46:17;;;;;;;4.65;0.50;;;4.50;99.90;;;;;;4907831;29;20036;-81
2022/11/22 05:48:45;;;;;;;3.05;0.30;;;4.40;99.90;;;;;;4893376;29;20060;-86
2022/11/22 05:51:17;;;;;;;2.25;0.22;;;4.50;99.90;;;;;;4875895;29;20045;-84
2022/11/22 05:53:43;;;;;;;3.30;0.30;;;4.40;99.90;;;;;;4876410;29;20029;-83
2022/11/22 05:56:11;;;;;;;5.63;1.02;;;4.40;99.90;;;;;;4890885;29;20124;-84
2022/11/22 05:58:37;;;;;;;1.60;0.10;;;4.30;99.90;;;;;;4875023;29;20056;-86
2022/11/22 06:01:11;;;;;;;2.10;0.20;;;4.40;99.90;;;;;;4894816;29;20063;-85
2022/11/22 06:03:37;;;;;;;3.60;0.30;;;4.40;99.90;;;;;;4891807;29;20033;-85
2022/11/22 06:06:04;;;;;;;4.15;0.80;;;4.30;99.90;;;;;;4876050;29;20124;-85
2022/11/22 06:08:31;;;;;;;1.60;0.30;;;4.30;99.90;;;;;;4907064;29;20029;-87
2022/11/22 06:11:05;;;;;;;5.22;0.32;;;4.20;99.90;;;;;;4891949;29;20060;-82
2022/11/22 06:13:39;;;;;;;3.22;0.20;;;4.20;99.90;;;;;;4905441;29;20060;-82
2022/11/22 06:16:06;;;;;;;2.17;0.20;;;4.20;99.90;;;;;;4889301;29;20041;-84
2022/11/22 06:18:33;;;;;;;2.95;0.22;;;4.20;99.90;;;;;;4891970;29;20119;-84
2022/11/22 06:21:03;;;;;;;3.42;0.30;;;4.20;99.90;;;;;;4906378;29;20025;-84
2022/11/22 06:23:29;;;;;;;5.45;0.30;;;4.20;99.90;;;;;;4888814;29;20025;-85
2022/11/22 06:26:00;;;;;;;4.28;0.20;;;4.20;99.90;;;;;;4888421;29;20064;-84
2022/11/22 06:28:28;;;;;;;2.60;0.20;;;4.10;99.90;;;;;;4907157;29;20072;-87
2022/11/22 06:30:53;;;;;;;3.05;0.20;;;4.10;99.90;;;;;;4903911;29;20079;-86
2022/11/22 06:33:19;;;;;;;3.00;0.17;;;4.10;99.90;;;;;;4890186;29;20052;-82
2022/11/22 06:35:45;;;;;;;4.63;0.30;;;4.10;99.90;;;;;;4890023;29;20116;-86
2022/11/22 06:38:11;;;;;;;4.05;0.35;;;4.10;99.90;;;;;;4891255;29;20060;-82
2022/11/22 06:40:36;;;;;;;5.45;0.20;;;4.10;99.90;;;;;;4890492;29;20592;-86
2022/11/22 06:43:02;;;;;;;8.23;0.55;;;4.10;99.90;;;;;;4886485;29;20626;-81
2022/11/22 06:45:30;;;;;;;2.15;0.25;;;4.10;99.90;;;;;;4865360;29;20560;-83
2022/11/22 06:47:57;;;;;;;5.30;0.30;;;4.00;99.90;;;;;;4891195;29;20096;-86
2022/11/22 06:50:23;;;;;;;3.78;0.28;;;4.10;99.90;;;;;;4883933;29;20403;-87
2022/11/22 06:52:52;;;;;;;3.80;0.30;;;4.00;99.90;;;;;;4869941;29;20040;-77
2022/11/22 06:55:18;;;;;;;5.20;0.40;;;4.10;99.90;;;;;;4835714;29;20028;-89
2022/11/22 06:57:49;;;;;;;6.43;0.30;;;4.10;99.90;;;;;;4839252;29;20054;-84
2022/11/22 07:00:15;;;;;;;3.17;0.20;;;4.10;99.90;;;;;;4828841;29;20807;-83
2022/11/22 07:02:41;;;;;;;3.10;0.30;;;4.00;99.90;;;;;;4867214;29;20036;-84
2022/11/22 07:05:06;;;;;;;3.88;0.30;;;4.00;99.90;;;;;;4874790;29;21217;-85
2022/11/22 07:07:32;;;;;;;4.55;0.40;;;4.00;99.90;;;;;;4872789;29;20045;-89
2022/11/22 07:09:58;;;;;;;1.35;0.25;;;4.00;99.90;;;;;;4873387;29;20029;-91
2022/11/22 07:12:24;;;;;;;3.33;0.20;;;4.00;99.90;;;;;;4866066;29;20196;-81
2022/11/22 07:14:50;;;;;;;3.00;0.20;;;4.00;99.90;;;;;;4853880;29;20029;-86
2022/11/22 07:17:15;;;;;;;4.15;0.20;;;4.00;99.90;;;;;;4873163;29;20048;-85
2022/11/22 07:19:41;;;;;;;3.00;0.30;;;3.90;99.90;;;;;;4872888;29;20081;-88
2022/11/22 07:22:07;;;;;;;4.07;0.40;;;4.00;99.90;;;;;;4879600;29;20077;-84
2022/11/22 07:24:32;;;;;;;4.43;0.57;;;3.90;99.90;;;;;;4870952;29;20524;-82
2022/11/22 07:26:58;;;;;;;2.97;0.40;;;3.90;99.90;;;;;;4879494;29;21080;-83
2022/11/22 07:29:24;;;;;;;6.72;0.73;;;4.00;99.90;;;;;;4879702;29;20041;-80
2022/11/22 07:31:49;;;;;;;2.80;0.50;;;3.90;99.90;;;;;;4841469;29;20068;-80
2022/11/22 07:34:15;;;;;;;3.97;0.40;;;3.90;99.90;;;;;;4863294;29;20036;-81
2022/11/22 07:36:40;;;;;;;4.60;0.63;;;3.90;99.90;;;;;;4866967;29;20399;-82
2022/11/22 07:39:06;;;;;;;3.45;0.40;;;4.00;99.90;;;;;;4847720;29;20048;-83
2022/11/22 07:41:32;;;;;;;3.72;0.40;;;4.00;99.90;;;;;;4878173;29;20037;-82
2022/11/22 07:43:59;;;;;;;4.78;0.40;;;4.00;99.90;;;;;;4864904;29;21170;-82
2022/11/22 07:46:28;;;;;;;4.15;0.30;;;4.00;99.90;;;;;;4879765;29;20124;-81
2022/11/22 07:48:55;;;;;;;5.38;0.30;;;4.00;99.90;;;;;;4879387;29;20120;-83
2022/11/22 07:51:20;;;;;;;3.08;0.30;;;4.10;99.90;;;;;;4863875;29;20059;-82
2022/11/22 07:53:46;;;;;;;3.60;0.40;;;4.20;99.90;;;;;;4879021;29;20041;-83
2022/11/22 07:56:12;;;;;;;6.03;0.40;;;4.30;99.90;;;;;;4860070;29;20064;-81
2022/11/22 07:58:37;;;;;;;2.67;0.28;;;4.30;99.90;;;;;;4880147;29;20059;-81
2022/11/22 08:01:08;;;;;;;3.50;0.30;;;4.40;99.90;;;;;;4864437;29;20060;-81
2022/11/22 08:03:35;;;;;;;5.40;0.40;;;4.50;99.90;;;;;;4863473;29;20032;-81
2022/11/22 08:06:02;;;;;;;4.13;0.40;;;4.60;99.90;;;;;;4869458;29;20695;-80
2022/11/22 08:08:28;;;;;;;3.13;0.30;;;4.60;99.90;;;;;;4869633;29;20100;-81
2022/11/22 08:10:54;;;;;;;2.88;0.30;;;4.60;99.90;;;;;;4869555;29;20045;-81
2022/11/22 08:13:20;;;;;;;7.78;0.60;;;4.80;99.90;;;;;;4868720;29;20440;-82
2022/11/22 08:15:48;;;;;;;3.28;0.30;;;4.80;99.90;;;;;;4876783;29;20037;-81
2022/11/22 08:18:14;;;;;;;7.55;0.80;;;4.90;99.90;;;;;;4845328;29;20617;-83
2022/11/22 08:20:40;;;;;;;2.40;0.35;;;4.90;99.90;;;;;;4822854;29;20041;-84
2022/11/22 08:23:28;;;;;;;6.22;0.35;;;4.90;99.90;;;;;;4842566;29;20135;-82
2022/11/22 08:26:05;;;;;;;5.63;1.10;;;5.00;99.90;;;;;;4857977;29;20032;-80
2022/11/22 08:28:31;;;;;;;5.38;0.45;;;5.00;99.90;;;;;;4847412;29;20188;-80
2022/11/22 08:31:20;;;;;;;6.07;0.60;;;5.10;99.90;;;;;;4848702;29;20056;-83
2022/11/22 08:33:46;;;;;;;4.85;0.50;;;5.10;99.90;;;;;;4874199;29;20084;-80
2022/11/22 08:36:12;;;;;;;5.43;0.52;;;5.20;99.90;;;;;;4864002;29;20045;-81
2022/11/22 08:38:38;;;;;;;5.03;0.60;;;5.20;99.90;;;;;;4834656;29;20052;-81
2022/11/22 08:41:05;;;;;;;3.17;0.40;;;5.30;99.90;;;;;;4853746;29;20486;-81
2022/11/22 08:43:32;;;;;;;4.40;0.47;;;5.30;99.90;;;;;;4877213;29;20040;-81
2022/11/22 08:45:58;;;;;;;5.90;0.40;;;5.30;99.90;;;;;;4853843;29;20184;-83
2022/11/22 08:48:25;;;;;;;6.43;0.40;;;5.30;99.90;;;;;;4860197;29;20252;-82
2022/11/22 08:50:53;;;;;;;4.30;0.40;;;5.40;99.90;;;;;;4824349;29;20080;-83
2022/11/22 08:53:19;;;;;;;6.18;0.50;;;5.40;99.90;;;;;;4860086;29;20615;-81
2022/11/22 08:55:45;;;;;;;4.38;0.40;;;5.40;99.90;;;;;;4845246;29;20212;-81
2022/11/22 08:58:10;;;;;;;2.97;0.40;;;5.50;99.90;;;;;;4871363;29;20174;-82
2022/11/22 09:00:36;;;;;;;4.47;0.40;;;5.50;99.90;;;;;;4849883;29;20555;-82
2022/11/22 09:03:02;;;;;;;5.68;0.50;;;5.50;99.90;;;;;;4882368;29;20036;-83
2022/11/22 09:05:29;;;;;;;5.10;0.50;;;5.50;99.90;;;;;;4884440;29;20037;-80
2022/11/22 09:07:54;;;;;;;3.10;0.40;;;5.60;99.90;;;;;;4886982;29;20036;-82
2022/11/22 09:10:20;;;;;;;5.00;0.30;;;5.60;99.90;;;;;;4887587;29;20040;-84
2022/11/22 09:12:46;;;;;;;3.78;0.30;;;5.70;99.90;;;;;;4886333;29;20129;-82
2022/11/22 09:15:12;;;;;;;4.47;0.40;;;5.70;99.90;;;;;;4885714;29;20043;-82
2022/11/22 09:17:38;;;;;;;3.22;0.40;;;5.70;99.90;;;;;;4851166;29;20587;-79
2022/11/22 09:20:05;;;;;;;2.92;0.30;;;5.80;99.90;;;;;;4840121;29;20036;-81
2022/11/22 09:22:31;;;;;;;5.75;0.70;;;5.80;99.90;;;;;;4884364;29;20065;-81
2022/11/22 09:24:57;;;;;;;10.68;0.50;;;5.90;99.90;;;;;;4883105;29;20049;-82
2022/11/22 09:27:22;;;;;;;3.78;0.30;;;5.90;99.90;;;;;;4873628;29;20674;-80
2022/11/22 09:29:48;;;;;;;3.30;0.30;;;6.00;99.90;;;;;;4817108;29;20097;-81
2022/11/22 09:32:14;;;;;;;6.45;0.40;;;6.00;99.90;;;;;;4884090;29;20048;-81
2022/11/22 09:34:40;;;;;;;3.78;0.30;;;6.00;99.90;;;;;;4881142;29;20039;-83
2022/11/22 09:37:05;;;;;;;3.55;0.30;;;6.00;99.90;;;;;;4865153;29;20057;-80
2022/11/22 09:39:31;;;;;;;5.15;0.40;;;6.00;99.90;;;;;;4873277;29;20075;-86
2022/11/22 09:42:31;;;;;;;1.92;0.40;;;6.00;99.90;;;;;;4878793;29;21697;-84
2022/11/22 09:45:04;;;;;;;3.63;0.50;;;6.00;99.90;;;;;;4871050;29;20044;-80
2022/11/22 09:47:45;;;;;;;1.15;0.20;;;6.00;99.90;;;;;;4860331;29;20045;-79
2022/11/22 09:50:54;;;;;;;4.60;0.30;;;6.10;99.90;;;;;;4874887;29;20036;-80
2022/11/22 09:53:41;;;;;;;5.63;0.50;;;6.10;99.90;;;;;;4869851;29;20148;-80
2022/11/22 09:56:16;;;;;;;4.60;0.30;;;6.20;99.90;;;;;;4875194;29;20143;-81
2022/11/22 09:58:57;;;;;;;5.80;0.50;;;6.30;99.90;;;;;;4884790;29;20334;-82
2022/11/22 10:01:30;;;;;;;;;;;6.30;99.90;;;;;;4875373;29;20040;-81
2022/11/22 10:04:11;;;;;;;4.43;0.40;;;6.40;99.90;;;;;;4877366;29;19962;-82
2022/11/22 10:06:44;;;;;;;5.22;0.32;;;6.30;99.90;;;;;;4867561;29;20035;-81
2022/11/22 10:09:26;;;;;;;3.67;0.30;;;6.40;99.90;;;;;;4826582;29;20041;-84
2022/11/22 10:12:18;;;;;;;3.33;0.30;;;6.40;99.90;;;;;;4822394;29;20049;-83
2022/11/22 10:14:51;;;;;;;6.53;0.40;;;6.50;99.90;;;;;;4875500;29;20066;-82
2022/11/22 10:17:42;;;;;;;4.60;0.30;;;6.60;99.90;;;;;;4884058;29;20064;-79
2022/11/22 10:20:15;;;;;;;5.18;0.30;;;6.70;99.90;;;;;;4884310;29;20047;-81
2022/11/22 10:22:40;;;;;;;2.22;0.47;;;6.90;99.90;;;;;;4873523;29;20045;-83
2022/11/22 10:25:21;;;;;;;2.47;0.30;;;6.90;99.90;;;;;;4863328;29;20040;-82
2022/11/22 10:27:53;;;;;;;4.07;0.30;;;7.00;99.90;;;;;;4885566;29;20044;-82
2022/11/22 10:30:20;;;;;;;3.15;0.28;;;7.00;99.90;;;;;;4870016;29;20068;-80
2022/11/22 10:33:07;;;;;;;4.22;0.50;;;7.00;99.90;;;;;;4877231;29;20139;-81
2022/11/22 10:35:59;;;;;;;2.67;0.30;;;7.10;99.90;;;;;;4875016;29;20457;-83
2022/11/22 10:38:49;;;;;;;1.98;0.20;;;7.10;99.90;;;;;;4866539;29;20111;-82
2022/11/22 10:41:39;;;;;;;1.98;0.20;;;7.10;99.90;;;;;;4843559;29;20043;-81
2022/11/22 10:44:38;;;;;;;3.33;0.20;;;7.10;99.90;;;;;;4869240;29;20635;-80
2022/11/22 10:47:03;;;;;;;2.75;0.35;;;7.10;99.90;;;;;;4870864;29;20702;-80
2022/11/22 10:49:48;;;;;;;4.18;0.30;;;7.10;99.90;;;;;;4883718;29;20037;-86
2022/11/22 10:52:14;;;;;;;3.83;0.20;;;7.10;99.90;;;;;;4882444;29;20048;-85
2022/11/22 10:55:22;;;;;;;4.20;0.20;;;7.20;99.90;;;;;;4884310;29;20040;-81
2022/11/22 10:57:53;;;;;;;3.25;0.20;;;7.20;99.90;;;;;;4857200;29;20056;-80
2022/11/22 11:00:23;;;;;;;2.70;0.20;;;7.40;99.90;;;;;;4874546;29;20032;-83
2022/11/22 11:03:08;;;;;;;5.32;0.20;;;7.40;99.90;;;;;;4883932;29;20045;-85
2022/11/22 11:05:46;;;;;;;4.03;0.40;;;7.40;99.90;;;;;;4883298;29;20045;-81
2022/11/22 11:08:15;;;;;;;2.63;0.25;;;7.40;99.90;;;;;;4884339;29;20032;-81
2022/11/22 11:10:42;;;;;;;2.25;0.20;;;7.40;99.90;;;;;;4885536;29;20474;-80
2022/11/22 11:13:30;;;;;;;2.15;0.20;;;7.50;99.90;;;;;;4882887;29;20052;-81
2022/11/22 11:15:59;;;;;;;2.75;0.20;;;7.40;99.90;;;;;;4869129;29;20033;-81
2022/11/22 11:18:37;;;;;;;1.90;0.30;;;7.40;99.90;;;;;;4860853;29;20123;-85
2022/11/22 11:21:06;;;;;;;1.75;0.20;;;7.40;99.90;;;;;;4863183;29;20116;-83
2022/11/22 11:23:33;;;;;;;1.05;0.10;;;7.40;99.90;;;;;;4879128;29;20041;-81
2022/11/22 11:26:18;;;;;;;3.08;0.30;;;7.40;99.90;;;;;;4850009;29;20300;-82
2022/11/22 11:28:44;;;;;;;0.85;0.10;;;7.40;99.90;;;;;;4855962;29;20033;-81
2022/11/22 11:31:12;;;;;;;1.00;0.10;;;7.40;99.90;;;;;;4871087;29;20493;-84
2022/11/22 11:33:40;;;;;;;2.08;0.15;;;7.30;99.90;;;;;;4852391;29;20060;-81
2022/11/22 11:36:23;;;;;;;0.75;0.10;;;7.40;99.90;;;;;;4872075;29;20045;-84
2022/11/22 11:38:53;;;;;;;1.42;0.10;;;7.40;99.90;;;;;;4864403;29;20592;-79
2022/11/22 11:41:31;;;;;;;2.20;0.10;;;7.40;99.90;;;;;;4876500;29;20043;-81
2022/11/22 11:44:03;;;;;;;1.52;0.17;;;7.40;99.90;;;;;;4844826;29;20101;-81
2022/11/22 11:46:35;;;;;;;1.60;0.20;;;7.40;99.90;;;;;;4859346;29;20040;-82
2022/11/22 11:49:10;;;;;;;0.28;0.03;;;7.50;99.90;;;;;;4867319;29;20922;-85
2022/11/22 11:51:40;;;;;;;1.58;0.20;;;7.60;99.90;;;;;;4881835;29;20045;-82
2022/11/22 11:54:10;;;;;;;2.00;0.10;;;7.60;99.90;;;;;;4882265;29;20044;-83
2022/11/22 11:57:03;;;;;;;0.93;0.10;;;7.70;99.90;;;;;;4869088;29;20198;-86
2022/11/22 11:59:44;;;;;;;0.70;0.10;;;7.70;99.90;;;;;;4859516;29;20037;-81
2022/11/22 12:02:22;;;;;;;1.25;0.17;;;7.70;99.90;;;;;;4868727;29;20039;-82
2022/11/22 12:04:52;;;;;;;1.13;0.10;;;7.70;99.90;;;;;;4882710;29;20100;-83
2022/11/22 12:07:23;;;;;;;1.08;0.10;;;7.60;99.90;;;;;;4884661;29;20036;-82
2022/11/22 12:09:51;;;;;;;0.25;0.10;;;7.60;99.90;;;;;;4879534;29;20049;-80
2022/11/22 12:12:16;;;;;;;0.70;0.10;;;7.70;99.90;;;;;;4866375;29;20091;-82
2022/11/22 12:14:48;;;;;;;1.05;0.10;;;7.70;99.90;;;;;;4867307;29;20572;-81
2022/11/22 12:17:24;;;;;;;0.38;0.05;;;7.70;99.90;;;;;;4855383;29;20059;-81
2022/11/22 12:20:06;;;;;;;0.30;0.00;;;7.70;99.90;;;;;;4866978;29;20219;-81
2022/11/22 12:22:41;;;;;;;1.80;0.10;;;7.70;99.90;;;;;;4849813;29;20156;-82
2022/11/22 12:25:41;;;;;;;1.17;0.10;;;7.70;99.90;;;;;;4881615;29;20037;-81
2022/11/22 12:28:16;;;;;;;;;;;7.70;99.90;;;;;;4866410;29;20987;-80
2022/11/22 12:30:44;;;;;;;0.88;0.10;;;7.70;99.90;;;;;;4872494;29;19923;-80
2022/11/22 12:33:19;;;;;;;1.17;0.03;;;7.70;99.90;;;;;;4864524;29;20036;-81
2022/11/22 12:35:46;;;;;;;0.52;0.08;;;7.70;99.90;;;;;;4882267;29;20096;-81
2022/11/22 12:38:26;;;;;;;0.30;0.10;;;7.80;99.90;;;;;;4849185;29;20059;-83
2022/11/22 12:40:56;;;;;;;0.95;0.10;;;7.70;99.90;;;;;;4866844;29;20037;-82
2022/11/22 12:43:31;;;;;;;0.32;0.08;;;7.70;99.90;;;;;;4879558;29;20127;-83
2022/11/22 12:46:10;;;;;;;1.63;0.10;;;7.70;99.90;;;;;;4873666;29;20041;-83
2022/11/22 12:48:45;;;;;;;0.55;0.00;;;7.60;99.90;;;;;;4869680;29;20071;-84
2022/11/22 12:51:14;;;;;;;0.77;0.00;;;7.60;99.90;;;;;;4869825;29;20045;-81
2022/11/22 12:53:44;;;;;;;0.35;0.00;;;7.60;99.90;;;;;;4875839;29;20145;-83
2022/11/22 12:56:36;;;;;;;0.55;0.10;;;7.60;99.90;;;;;;4862676;29;20615;-85
2022/11/22 12:59:10;;;;;;;1.85;0.10;;;7.60;99.90;;;;;;4873684;29;20048;-83
2022/11/22 13:01:36;;;;;;;0.40;0.08;;;7.60;99.90;;;;;;4875141;29;20041;-86
2022/11/22 13:04:08;;;;;;;0.85;0.00;;;7.60;99.90;;;;;;4863015;29;20055;-81
2022/11/22 13:07:08;;;;;;;1.85;0.47;;;7.60;99.90;;;;;;4864667;29;20036;-80
2022/11/22 13:09:39;;;;;;;0.52;0.00;;;7.60;99.90;;;;;;4829158;29;21169;-81
2022/11/22 13:12:11;;;;;;;0.98;0.00;;;7.60;99.90;;;;;;4871938;29;20052;-84
2022/11/22 13:14:51;;;;;;;0.20;0.00;;;7.60;99.90;;;;;;4857805;29;20151;-82
2022/11/22 13:17:16;;;;;;;;;;;7.60;99.90;;;;;;4854536;29;20089;-82
2022/11/22 13:19:54;;;;;;;0.22;0.00;;;7.60;99.90;;;;;;4841330;29;19949;-83
2022/11/22 13:22:39;;;;;;;0.50;0.10;;;7.60;99.90;;;;;;4875384;29;20041;-82